Terminal Aerodrome Forecast
Issued by NWS

Home | Current Version | Previous Version | Text Only | Print | Product List | Glossary On
Versions: 1 2 3 4 5 6 7 8 9 10 11 12 13 14 15
000
FTUS46 KPDT 240520
TAFPSC
TAF
KPSC 240520Z 2406/2506 27010G20KT P6SM FEW250
     FM240900 24008G15KT P6SM SCT150 BKN250
     FM241800 25015G25KT P6SM SCT250
     FM250300 26008G15KT P6SM FEW250=

USA.gov is the U.S. government's official web portal to all federal, state and local government web resources and services.